^^
Datos históricos de la estación: Murcia-Puente Tocinos
Diario Informe para Junio 9, 2019 Unidades:  Ambas    Ingés   Métrico
Diario Semanal Mensual Anual
  Máxima: Mínima: Promedio:
Temperatura: 66.4 °F /  19.1 °C 44.6 °F /  7 °C 55.4 °F /  13 °C
Punto de rocio: 41.9 °F /  5.5 °C 27.7 °F /  -2.4 °C 34.2 °F /  1.2 °C
Humedad: 77.2% 27% 47%
Velocidad viento: 12.3mph /  19.8km/h - 5.6mph /  9km/h
Racha viento: 25mph /  40.2km/h - -
Viento- - SO
Presión: 30.2 in /  1021.7 hPa 29.9 in /  1012.8 hPa -
Precipitación: 0 in /  0.0 mm    
 
 
Tabla de datos para Junio 9, 2019
Hora Temperatura Punto de rocio Presión Viento Velocidad viento Racha viento Humedad Intensidad lluvia(por hora) Nubes
00:04 48.7 °F /  9.3 °C 41.9 °F /  5.5 °C 30.2in /  1021.7hPa SSO 5.4mph /  8.7km/h 12mph /  19.3km/h 77.2% 0in /  0.0mm
00:09 48.7 °F /  9.3 °C 41.9 °F /  5.5 °C 30.2in /  1021.4hPa SSO 6.3mph /  10.2km/h 12mph /  19.3km/h 77% 0in /  0.0mm
00:14 48.7 °F /  9.3 °C 41.7 °F /  5.4 °C 30.2in /  1021.4hPa SSO 6.9mph /  11.1km/h 12mph /  19.3km/h 77% 0in /  0.0mm
00:19 48.6 °F /  9.2 °C 41.5 °F /  5.3 °C 30.2in /  1021.4hPa SSO 6.3mph /  10.1km/h 12.7mph /  20.4km/h 76.6% 0in /  0.0mm
00:24 48.6 °F /  9.2 °C 41.4 °F /  5.2 °C 30.2in /  1021.2hPa SSO 5.9mph /  9.5km/h 13mph /  20.9km/h 76% 0in /  0.0mm
00:29 48.4 °F /  9.1 °C 41.2 °F /  5.1 °C 30.2in /  1021.2hPa SSO 6.8mph /  10.9km/h 12mph /  19.3km/h 76% 0in /  0.0mm
00:34 48.2 °F /  9 °C 41 °F /  5 °C 30.2in /  1021.2hPa SSO 7.4mph /  11.9km/h 11mph /  17.7km/h 76% 0in /  0.0mm
00:39 48 °F /  8.9 °C 40.8 °F /  4.9 °C 30.2in /  1021.0hPa SSO 6.8mph /  10.9km/h 11mph /  17.7km/h 76% 0in /  0.0mm
00:44 47.8 °F /  8.8 °C 40.6 °F /  4.8 °C 30.2in /  1021.0hPa SSO 6.4mph /  10.3km/h 12.7mph /  20.4km/h 76% 0in /  0.0mm
00:49 47.8 °F /  8.8 °C 40.6 °F /  4.8 °C 30.2in /  1021.0hPa SSO 6.4mph /  10.3km/h 13mph /  20.9km/h 76% 0in /  0.0mm
00:54 47.8 °F /  8.8 °C 40.6 °F /  4.8 °C 30.1in /  1020.8hPa SSO 6.4mph /  10.3km/h 10mph /  16.1km/h 76% 0in /  0.0mm
00:59 47.7 °F /  8.7 °C 40.3 °F /  4.6 °C 30.1in /  1020.8hPa SSO 6.4mph /  10.3km/h 10.4mph /  16.7km/h 75.1% 0in /  0.0mm
01:04 47.8 °F /  8.8 °C 39.9 °F /  4.4 °C 30.1in /  1020.8hPa SSO 6.4mph /  10.3km/h 10.4mph /  16.7km/h 74% 0in /  0.0mm
01:09 47.7 °F /  8.7 °C 39.6 °F /  4.2 °C 30.1in /  1020.7hPa Sur 6.3mph /  10.1km/h 10.4mph /  16.7km/h 73.1% 0in /  0.0mm
01:14 47.5 °F /  8.6 °C 39.4 °F /  4.1 °C 30.1in /  1020.7hPa Sur 6.2mph /  10km/h 10mph /  16.1km/h 73% 0in /  0.0mm
01:19 47.1 °F /  8.4 °C 39.2 °F /  4 °C 30.1in /  1020.7hPa Sur 6.3mph /  10.2km/h 12.7mph /  20.4km/h 73.9% 0in /  0.0mm
01:24 46.9 °F /  8.3 °C 39.2 °F /  4 °C 30.1in /  1020.5hPa SSO 6.4mph /  10.3km/h 13mph /  20.9km/h 74% 0in /  0.0mm
01:29 46.8 °F /  8.2 °C 39 °F /  3.9 °C 30.1in /  1020.5hPa SO 6.1mph /  9.8km/h 10.4mph /  16.7km/h 74% 0in /  0.0mm
01:34 46.9 °F /  8.3 °C 38.7 °F /  3.7 °C 30.1in /  1020.5hPa SSO 5.9mph /  9.5km/h 10mph /  16.1km/h 73.3% 0in /  0.0mm
01:39 47.1 °F /  8.4 °C 38.7 °F /  3.7 °C 30.1in /  1020.4hPa SSO 5.2mph /  8.3km/h 9.7mph /  15.6km/h 72.2% 0in /  0.0mm
01:44 47.1 °F /  8.4 °C 38.5 °F /  3.6 °C 30.1in /  1020.4hPa SSO 4.7mph /  7.6km/h 10mph /  16.1km/h 71.8% 0in /  0.0mm
01:49 47.1 °F /  8.4 °C 38.1 °F /  3.4 °C 30.1in /  1020.4hPa SO 5.1mph /  8.2km/h 10.4mph /  16.7km/h 70.9% 0in /  0.0mm
01:54 47.1 °F /  8.4 °C 37.8 °F /  3.2 °C 30.1in /  1020.3hPa SO 5.4mph /  8.7km/h 10mph /  16.1km/h 69.7% 0in /  0.0mm
01:59 47.5 °F /  8.6 °C 37.6 °F /  3.1 °C 30.1in /  1020.3hPa SO 5.7mph /  9.2km/h 10mph /  16.1km/h 68.6% 0in /  0.0mm
02:04 47.5 °F /  8.6 °C 37.4 °F /  3 °C 30.1in /  1020.3hPa SSO 5.9mph /  9.5km/h 10.4mph /  16.7km/h 68% 0in /  0.0mm
02:09 47.3 °F /  8.5 °C 37.2 °F /  2.9 °C 30.1in /  1020.3hPa Sur 6.1mph /  9.8km/h 11.5mph /  18.5km/h 68% 0in /  0.0mm
02:14 47.1 °F /  8.4 °C 37 °F /  2.8 °C 30.1in /  1020.3hPa SSO 6.2mph /  10km/h 12mph /  19.3km/h 67.9% 0in /  0.0mm
02:19 46.9 °F /  8.3 °C 37 °F /  2.8 °C 30.1in /  1020.3hPa Sur 6.6mph /  10.7km/h 12.7mph /  20.4km/h 67.9% 0in /  0.0mm
02:24 46.8 °F /  8.2 °C 36.9 °F /  2.7 °C 30.1in /  1020.0hPa Sur 6.9mph /  11.1km/h 13mph /  20.9km/h 68.1% 0in /  0.0mm
02:29 46.6 °F /  8.1 °C 36.9 °F /  2.7 °C 30.1in /  1020.0hPa SSO 6.6mph /  10.6km/h 10.4mph /  16.7km/h 68.5% 0in /  0.0mm
02:34 46.6 °F /  8.1 °C 36.7 °F /  2.6 °C 30.1in /  1020.0hPa Sur 6.4mph /  10.3km/h 10mph /  16.1km/h 68.4% 0in /  0.0mm
02:39 46.2 °F /  7.9 °C 36.5 °F /  2.5 °C 30.1in /  1019.9hPa SSO 6.4mph /  10.3km/h 11.5mph /  18.5km/h 68.7% 0in /  0.0mm
02:44 46.2 °F /  7.9 °C 36.1 °F /  2.3 °C 30.1in /  1019.9hPa SSO 6.4mph /  10.3km/h 12mph /  19.3km/h 68% 0in /  0.0mm
02:49 46.4 °F /  8 °C 35.8 °F /  2.1 °C 30.1in /  1019.9hPa SSO 6.3mph /  10.1km/h 12.7mph /  20.4km/h 66.1% 0in /  0.0mm
02:54 46.9 °F /  8.3 °C 35.4 °F /  1.9 °C 30.1in /  1019.8hPa SSO 6.2mph /  10km/h 13mph /  20.9km/h 63.9% 0in /  0.0mm
02:59 47.1 °F /  8.4 °C 35.1 °F /  1.7 °C 30.1in /  1019.8hPa SO 6.3mph /  10.2km/h 10mph /  16.1km/h 62.6% 0in /  0.0mm
03:04 47.1 °F /  8.4 °C 35.2 °F /  1.8 °C 30.1in /  1019.8hPa OSO 6.4mph /  10.3km/h 7mph /  11.3km/h 63% 0in /  0.0mm
03:09 47.1 °F /  8.4 °C 35.4 °F /  1.9 °C 30.1in /  1019.8hPa OSO 3.6mph /  5.8km/h 4mph /  6.4km/h 63.5% 0in /  0.0mm
03:14 46.8 °F /  8.2 °C 35.4 °F /  1.9 °C 30.1in /  1019.8hPa Sur 1.8mph /  2.9km/h 4.6mph /  7.4km/h 64.4% 0in /  0.0mm
03:19 46 °F /  7.8 °C 35.2 °F /  1.8 °C 30.1in /  1020.0hPa ESE 1.8mph /  2.9km/h 5.9mph /  9.5km/h 65.9% 0in /  0.0mm
03:24 45.3 °F /  7.4 °C 35.2 °F /  1.8 °C 30.1in /  1020.0hPa SE 1.8mph /  2.9km/h 6.2mph /  10km/h 67.4% 0in /  0.0mm
03:29 45.1 °F /  7.3 °C 34.9 °F /  1.6 °C 30.1in /  1020.0hPa Sur 2.5mph /  4.1km/h 6.2mph /  10km/h 67.4% 0in /  0.0mm
03:34 45.1 °F /  7.3 °C 34.7 °F /  1.5 °C 30.1in /  1020.1hPa SSO 3.1mph /  5km/h 6.2mph /  10km/h 66.9% 0in /  0.0mm
03:39 45.3 °F /  7.4 °C 34.5 °F /  1.4 °C 30.1in /  1020.1hPa SSO 3.4mph /  5.5km/h 6mph /  9.7km/h 65.8% 0in /  0.0mm
03:44 45.7 °F /  7.6 °C 34.3 °F /  1.3 °C 30.1in /  1020.1hPa SSO 3.6mph /  5.8km/h 5.8mph /  9.3km/h 64.3% 0in /  0.0mm
03:49 46.2 °F /  7.9 °C 34 °F /  1.1 °C 30.1in /  1020.1hPa Sur 3.6mph /  5.8km/h 7.4mph /  11.9km/h 62.4% 0in /  0.0mm
03:54 46.6 °F /  8.1 °C 33.8 °F /  1 °C 30.1in /  1020.0hPa Sur 3.6mph /  5.8km/h 9.2mph /  14.8km/h 60.8% 0in /  0.0mm
03:59 46.8 °F /  8.2 °C 33.6 °F /  0.9 °C 30.1in /  1020.0hPa Sur 5mph /  8.1km/h 9mph /  14.5km/h 60% 0in /  0.0mm
04:04 46.4 °F /  8 °C 33.4 °F /  0.8 °C 30.1in /  1020.0hPa Sur 5.9mph /  9.5km/h 8.5mph /  13.7km/h 60.4% 0in /  0.0mm
04:09 46 °F /  7.8 °C 33.8 °F /  1 °C 30.1in /  1019.8hPa Sur 5.6mph /  9km/h 9mph /  14.5km/h 62.2% 0in /  0.0mm
04:14 45.3 °F /  7.4 °C 33.8 °F /  1 °C 30.1in /  1019.8hPa Sur 5.4mph /  8.7km/h 9.2mph /  14.8km/h 63.8% 0in /  0.0mm
04:19 45 °F /  7.2 °C 33.8 °F /  1 °C 30.1in /  1019.8hPa Sur 6mph /  9.7km/h 9.2mph /  14.8km/h 65.1% 0in /  0.0mm
04:24 44.6 °F /  7 °C 34 °F /  1.1 °C 30.1in /  1019.7hPa SSO 6.4mph /  10.3km/h 9mph /  14.5km/h 66% 0in /  0.0mm
04:29 44.6 °F /  7 °C 33.6 °F /  0.9 °C 30.1in /  1019.7hPa SO 6.3mph /  10.1km/h 10.7mph /  17.2km/h 65.3% 0in /  0.0mm
04:34 45.9 °F /  7.7 °C 32.2 °F /  0.1 °C 30.1in /  1019.7hPa OSO 6.2mph /  10km/h 14mph /  22.5km/h 58.6% 0in /  0.0mm
04:39 48.7 °F /  9.3 °C 31.1 °F /  -0.5 °C 30.1in /  1019.4hPa SO 6.9mph /  11.1km/h 15mph /  24.1km/h 50.4% 0in /  0.0mm
04:44 50.7 °F /  10.4 °C 30.6 °F /  -0.8 °C 30.1in /  1019.4hPa SO 7.4mph /  11.9km/h 16.1mph /  25.9km/h 45.6% 0in /  0.0mm
04:49 52 °F /  11.1 °C 30.2 °F /  -1 °C 30.1in /  1019.4hPa SO 7.5mph /  12.1km/h 16mph /  25.7km/h 43.1% 0in /  0.0mm
04:54 52.3 °F /  11.3 °C 29.8 °F /  -1.2 °C 30.1in /  1019.1hPa SO 7.6mph /  12.2km/h 12mph /  19.3km/h 42% 0in /  0.0mm
04:59 52 °F /  11.1 °C 29.8 °F /  -1.2 °C 30.1in /  1019.1hPa SSO 7.1mph /  11.5km/h 12mph /  19.3km/h 42.6% 0in /  0.0mm
05:04 51.3 °F /  10.7 °C 30.2 °F /  -1 °C 30.1in /  1019.1hPa Sur 6.9mph /  11.1km/h 10mph /  16.1km/h 44% 0in /  0.0mm
05:09 50.5 °F /  10.3 °C 30.2 °F /  -1 °C 30.1in /  1018.9hPa SSO 6.6mph /  10.6km/h 14.7mph /  23.7km/h 45.6% 0in /  0.0mm
05:14 50.5 °F /  10.3 °C 30.4 °F /  -0.9 °C 30.1in /  1018.9hPa SO 6.4mph /  10.3km/h 15mph /  24.1km/h 45.7% 0in /  0.0mm
05:19 51.1 °F /  10.6 °C 30.6 °F /  -0.8 °C 30.1in /  1018.9hPa OSO 7.6mph /  12.3km/h 16.1mph /  25.9km/h 45% 0in /  0.0mm
05:24 51.3 °F /  10.7 °C 30.6 °F /  -0.8 °C 30.1in /  1018.5hPa OSO 8.5mph /  13.7km/h 16mph /  25.7km/h 44.8% 0in /  0.0mm
05:29 51.1 °F /  10.6 °C 30.6 °F /  -0.8 °C 30.1in /  1018.5hPa OSO 7.5mph /  12.1km/h 13mph /  20.9km/h 45.2% 0in /  0.0mm
05:34 50.5 °F /  10.3 °C 30.6 °F /  -0.8 °C 30.1in /  1018.5hPa OSO 6.9mph /  11.1km/h 11.4mph /  18.3km/h 46.2% 0in /  0.0mm
05:39 50.4 °F /  10.2 °C 30.9 °F /  -0.6 °C 30.1in /  1018.3hPa Oeste 6.6mph /  10.6km/h 12mph /  19.3km/h 47% 0in /  0.0mm
05:44 50.4 °F /  10.2 °C 30.9 °F /  -0.6 °C 30.1in /  1018.3hPa Oeste 6.4mph /  10.3km/h 12mph /  19.3km/h 47.1% 0in /  0.0mm
05:49 50.4 °F /  10.2 °C 31.3 °F /  -0.4 °C 30.1in /  1018.4hPa Oeste 5.3mph /  8.6km/h 9mph /  14.5km/h 48% 0in /  0.0mm
05:54 50.4 °F /  10.2 °C 31.3 °F /  -0.4 °C 30.1in /  1018.4hPa OSO 4.7mph /  7.6km/h 9.2mph /  14.8km/h 47.7% 0in /  0.0mm
05:59 50.5 °F /  10.3 °C 31.5 °F /  -0.3 °C 30.1in /  1018.4hPa OSO 4.3mph /  6.9km/h 9mph /  14.5km/h 47.6% 0in /  0.0mm
06:04 50.5 °F /  10.3 °C 31.6 °F /  -0.2 °C 30.1in /  1018.4hPa OSO 4mph /  6.5km/h 7mph /  11.3km/h 48% 0in /  0.0mm
06:09 50.7 °F /  10.4 °C 31.6 °F /  -0.2 °C 30.1in /  1018.4hPa Oeste 3.8mph /  6.1km/h 6.2mph /  10km/h 48% 0in /  0.0mm
06:14 50.7 °F /  10.4 °C 31.6 °F /  -0.2 °C 30.1in /  1018.4hPa SSO 3.6mph /  5.8km/h 7.4mph /  11.9km/h 47.8% 0in /  0.0mm
06:19 50.7 °F /  10.4 °C 31.3 °F /  -0.4 °C 30.1in /  1018.4hPa SSO 3.3mph /  5.3km/h 7mph /  11.3km/h 47.1% 0in /  0.0mm
06:24 50.4 °F /  10.2 °C 31.3 °F /  -0.4 °C 30.1in /  1018.4hPa SO 3.1mph /  5km/h 7mph /  11.3km/h 48% 0in /  0.0mm
06:29 50 °F /  10 °C 31.5 °F /  -0.3 °C 30.1in /  1018.4hPa SO 3.6mph /  5.8km/h 7mph /  11.3km/h 48.8% 0in /  0.0mm
06:34 50.2 °F /  10.1 °C 31.6 °F /  -0.2 °C 30.1in /  1018.4hPa SSO 4mph /  6.5km/h 6.9mph /  11.1km/h 49% 0in /  0.0mm
06:39 50.4 °F /  10.2 °C 31.8 °F /  -0.1 °C 30.1in /  1018.4hPa SO 3.5mph /  5.6km/h 7mph /  11.3km/h 49% 0in /  0.0mm
06:44 50.4 °F /  10.2 °C 31.8 °F /  -0.1 °C 30.1in /  1018.4hPa SE 3.1mph /  5km/h 6mph /  9.7km/h 48.9% 0in /  0.0mm
06:49 50.2 °F /  10.1 °C 31.8 °F /  -0.1 °C 30.1in /  1018.4hPa SE 3mph /  4.8km/h 5.2mph /  8.4km/h 49% 0in /  0.0mm
06:54 49.6 °F /  9.8 °C 31.6 °F /  -0.2 °C 30.1in /  1018.4hPa SSE 2.9mph /  4.7km/h 6.9mph /  11.1km/h 49.8% 0in /  0.0mm
06:59 49.5 °F /  9.7 °C 31.6 °F /  -0.2 °C 30.1in /  1018.4hPa Sur 3.4mph /  5.4km/h 7mph /  11.3km/h 50% 0in /  0.0mm
07:04 49.6 °F /  9.8 °C 31.8 °F /  -0.1 °C 30.1in /  1018.5hPa Sur 3.6mph /  5.8km/h 6.9mph /  11.1km/h 50% 0in /  0.0mm
07:09 49.8 °F /  9.9 °C 31.8 °F /  -0.1 °C 30.1in /  1018.5hPa SSO 3.6mph /  5.8km/h 9.7mph /  15.6km/h 50% 0in /  0.0mm
07:14 50 °F /  10 °C 32 °F /  0 °C 30.1in /  1018.5hPa Oeste 3.6mph /  5.8km/h 10mph /  16.1km/h 50% 0in /  0.0mm
07:19 50.5 °F /  10.3 °C 32.2 °F /  0.1 °C 30.1in /  1018.6hPa SO 4.3mph /  6.9km/h 8.1mph /  13km/h 49.2% 0in /  0.0mm
07:24 50.7 °F /  10.4 °C 32.2 °F /  0.1 °C 30.1in /  1018.6hPa SO 4.7mph /  7.6km/h 11.5mph /  18.5km/h 48.9% 0in /  0.0mm
07:29 51.3 °F /  10.7 °C 32.5 °F /  0.3 °C 30.1in /  1018.6hPa OSO 4.7mph /  7.6km/h 12.7mph /  20.4km/h 49% 0in /  0.0mm
07:34 51.3 °F /  10.7 °C 32.7 °F /  0.4 °C 30.1in /  1018.7hPa Oeste 4.7mph /  7.6km/h 13mph /  20.9km/h 49% 0in /  0.0mm
07:39 51.4 °F /  10.8 °C 32.9 °F /  0.5 °C 30.1in /  1018.7hPa OSO 4.5mph /  7.2km/h 10mph /  16.1km/h 49% 0in /  0.0mm
07:44 51.3 °F /  10.7 °C 32.7 °F /  0.4 °C 30.1in /  1018.7hPa OSO 4.3mph /  6.9km/h 9.7mph /  15.6km/h 49% 0in /  0.0mm
07:49 51.4 °F /  10.8 °C 32.9 °F /  0.5 °C 30.1in /  1018.8hPa OSO 4.8mph /  7.8km/h 10mph /  16.1km/h 49% 0in /  0.0mm
07:54 51.4 °F /  10.8 °C 32.9 °F /  0.5 °C 30.1in /  1018.8hPa Oeste 5.2mph /  8.4km/h 9mph /  14.5km/h 49% 0in /  0.0mm
07:59 51.3 °F /  10.7 °C 32.9 °F /  0.5 °C 30.1in /  1018.8hPa OSO 3.2mph /  5.1km/h 5mph /  8km/h 49.4% 0in /  0.0mm
08:04 51.3 °F /  10.7 °C 33.3 °F /  0.7 °C 30.1in /  1019.2hPa SSO 2mph /  3.2km/h 5mph /  8km/h 50% 0in /  0.0mm
08:09 51.1 °F /  10.6 °C 33.1 °F /  0.6 °C 30.1in /  1019.2hPa SSO 2.2mph /  3.6km/h 5mph /  8km/h 50% 0in /  0.0mm
08:14 51.1 °F /  10.6 °C 33.1 °F /  0.6 °C 30.1in /  1019.2hPa SSO 2.4mph /  3.9km/h 4mph /  6.4km/h 50% 0in /  0.0mm
08:19 50.9 °F /  10.5 °C 32.9 °F /  0.5 °C 30.1in /  1019.2hPa SO 2.2mph /  3.5km/h 5.2mph /  8.4km/h 50% 0in /  0.0mm
08:24 51.3 °F /  10.7 °C 32.9 °F /  0.5 °C 30.1in /  1019.2hPa Oeste 2mph /  3.2km/h 9.2mph /  14.8km/h 49.5% 0in /  0.0mm
08:29 51.6 °F /  10.9 °C 33.1 °F /  0.6 °C 30.1in /  1019.2hPa Oeste 3.4mph /  5.5km/h 9.2mph /  14.8km/h 49% 0in /  0.0mm
08:34 51.6 °F /  10.9 °C 33.1 °F /  0.6 °C 30.1in /  1019.2hPa OSO 4.3mph /  6.9km/h 6mph /  9.7km/h 49% 0in /  0.0mm
08:39 51.4 °F /  10.8 °C 33.1 °F /  0.6 °C 30.1in /  1019.2hPa SSO 3.6mph /  5.8km/h 6.9mph /  11.1km/h 49.4% 0in /  0.0mm
08:44 51.3 °F /  10.7 °C 33.3 °F /  0.7 °C 30.1in /  1019.2hPa SSO 3.1mph /  5km/h 7mph /  11.3km/h 50% 0in /  0.0mm
08:49 51.1 °F /  10.6 °C 33.1 °F /  0.6 °C 30.1in /  1019.3hPa SO 3.4mph /  5.5km/h 6.9mph /  11.1km/h 50% 0in /  0.0mm
08:54 51.3 °F /  10.7 °C 33.3 °F /  0.7 °C 30.1in /  1019.3hPa SO 3.6mph /  5.8km/h 7mph /  11.3km/h 50% 0in /  0.0mm
08:59 51.3 °F /  10.7 °C 33.4 °F /  0.8 °C 30.1in /  1019.3hPa SO 3.3mph /  5.3km/h 6.2mph /  10km/h 50.4% 0in /  0.0mm
09:04 51.3 °F /  10.7 °C 33.8 °F /  1 °C 30.1in /  1019.4hPa SO 3.1mph /  5km/h 8.1mph /  13km/h 51% 0in /  0.0mm
09:09 51.4 °F /  10.8 °C 33.8 °F /  1 °C 30.1in /  1019.4hPa SO 3.8mph /  6.1km/h 8.5mph /  13.7km/h 51% 0in /  0.0mm
09:14 51.4 °F /  10.8 °C 34.2 °F /  1.2 °C 30.1in /  1019.4hPa SSO 4.3mph /  6.9km/h 9.7mph /  15.6km/h 51.5% 0in /  0.0mm
09:19 51.8 °F /  11 °C 34.7 °F /  1.5 °C 30.1in /  1019.6hPa SO 4.2mph /  6.7km/h 10mph /  16.1km/h 52% 0in /  0.0mm
09:24 52.2 °F /  11.2 °C 34.7 °F /  1.5 °C 30.1in /  1019.6hPa SSO 4mph /  6.5km/h 9.2mph /  14.8km/h 51.4% 0in /  0.0mm
09:29 52.5 °F /  11.4 °C 34.7 °F /  1.5 °C 30.1in /  1019.6hPa Sur 4.8mph /  7.8km/h 9.7mph /  15.6km/h 50.8% 0in /  0.0mm
09:34 52.7 °F /  11.5 °C 34.7 °F /  1.5 °C 30.1in /  1019.7hPa SSO 5.4mph /  8.7km/h 10mph /  16.1km/h 50.2% 0in /  0.0mm
09:39 52.7 °F /  11.5 °C 34.9 °F /  1.6 °C 30.1in /  1019.7hPa Sur 5.3mph /  8.5km/h 8mph /  12.9km/h 50.5% 0in /  0.0mm
09:44 52.5 °F /  11.4 °C 35.2 °F /  1.8 °C 30.1in /  1019.7hPa SSO 5.2mph /  8.4km/h 8.7mph /  14km/h 51.6% 0in /  0.0mm
09:49 52.3 °F /  11.3 °C 35.1 °F /  1.7 °C 30.1in /  1019.7hPa SSO 4.7mph /  7.5km/h 10.7mph /  17.2km/h 51.9% 0in /  0.0mm
09:54 52.2 °F /  11.2 °C 35.4 °F /  1.9 °C 30.1in /  1019.7hPa Sur 4.3mph /  6.9km/h 11mph /  17.7km/h 52.9% 0in /  0.0mm
09:59 52.2 °F /  11.2 °C 35.4 °F /  1.9 °C 30.1in /  1019.7hPa Sur 5.7mph /  9.2km/h 10mph /  16.1km/h 53% 0in /  0.0mm
10:04 52.3 °F /  11.3 °C 35.8 °F /  2.1 °C 30.1in /  1019.7hPa Sur 6.4mph /  10.3km/h 9.7mph /  15.6km/h 53% 0in /  0.0mm
10:09 52.9 °F /  11.6 °C 36 °F /  2.2 °C 30.1in /  1019.7hPa Sur 6.3mph /  10.1km/h 10.2mph /  16.4km/h 52.6% 0in /  0.0mm
10:14 53.1 °F /  11.7 °C 36 °F /  2.2 °C 30.1in /  1019.7hPa Sur 6.2mph /  10km/h 10.4mph /  16.7km/h 52% 0in /  0.0mm
10:19 53.2 °F /  11.8 °C 36.1 °F /  2.3 °C 30.1in /  1019.7hPa Sur 6.2mph /  10km/h 10mph /  16.1km/h 52% 0in /  0.0mm
10:24 53.6 °F /  12 °C 36.3 °F /  2.4 °C 30.1in /  1019.7hPa SSO 6.2mph /  10km/h 10mph /  16.1km/h 51.9% 0in /  0.0mm
10:29 54 °F /  12.2 °C 36.5 °F /  2.5 °C 30.1in /  1019.7hPa SSO 6.3mph /  10.2km/h 10mph /  16.1km/h 51.7% 0in /  0.0mm
10:34 54.1 °F /  12.3 °C 36.3 °F /  2.4 °C 30.1in /  1019.7hPa SSO 6.4mph /  10.3km/h 9mph /  14.5km/h 51% 0in /  0.0mm
10:39 54.3 °F /  12.4 °C 36.7 °F /  2.6 °C 30.1in /  1019.6hPa SSO 5.7mph /  9.2km/h 9mph /  14.5km/h 51% 0in /  0.0mm
10:44 54.9 °F /  12.7 °C 36.9 °F /  2.7 °C 30.1in /  1019.6hPa SSO 5.2mph /  8.4km/h 8.1mph /  13km/h 50.9% 0in /  0.0mm
10:49 55 °F /  12.8 °C 36.9 °F /  2.7 °C 30.1in /  1019.6hPa SSO 4.7mph /  7.5km/h 10mph /  16.1km/h 50.2% 0in /  0.0mm
10:54 55.2 °F /  12.9 °C 36.9 °F /  2.7 °C 30.1in /  1019.5hPa SSO 4.3mph /  6.9km/h 10.4mph /  16.7km/h 50% 0in /  0.0mm
10:59 55.4 °F /  13 °C 36.9 °F /  2.7 °C 30.1in /  1019.5hPa SO 5.3mph /  8.6km/h 10mph /  16.1km/h 49.7% 0in /  0.0mm
11:04 55.6 °F /  13.1 °C 36.9 °F /  2.7 °C 30.1in /  1019.7hPa SO 5.9mph /  9.5km/h 9mph /  14.5km/h 49.3% 0in /  0.0mm
11:09 55.9 °F /  13.3 °C 36.9 °F /  2.7 °C 30.1in /  1019.7hPa OSO 5.2mph /  8.3km/h 9.2mph /  14.8km/h 48.7% 0in /  0.0mm
11:14 56.1 °F /  13.4 °C 36.1 °F /  2.3 °C 30.1in /  1019.7hPa Oeste 4.7mph /  7.6km/h 11.5mph /  18.5km/h 46.9% 0in /  0.0mm
11:19 56.7 °F /  13.7 °C 36.1 °F /  2.3 °C 30.1in /  1019.7hPa Oeste 5.7mph /  9.2km/h 12mph /  19.3km/h 46.1% 0in /  0.0mm
11:24 56.8 °F /  13.8 °C 35.8 °F /  2.1 °C 30.1in /  1019.5hPa OSO 6.4mph /  10.3km/h 13.8mph /  22.2km/h 45.1% 0in /  0.0mm
11:29 56.8 °F /  13.8 °C 36 °F /  2.2 °C 30.1in /  1019.5hPa OSO 7.1mph /  11.5km/h 14mph /  22.5km/h 45.3% 0in /  0.0mm
11:34 57 °F /  13.9 °C 36 °F /  2.2 °C 30.1in /  1019.5hPa OSO 7.6mph /  12.2km/h 14mph /  22.5km/h 45.4% 0in /  0.0mm
11:39 57 °F /  13.9 °C 36.1 °F /  2.3 °C 30.1in /  1019.4hPa SO 7.6mph /  12.2km/h 13mph /  20.9km/h 45.3% 0in /  0.0mm
11:44 57 °F /  13.9 °C 35.8 °F /  2.1 °C 30.1in /  1019.4hPa SO 7.6mph /  12.2km/h 13.7mph /  22km/h 44.8% 0in /  0.0mm
11:49 57.4 °F /  14.1 °C 35.6 °F /  2 °C 30.1in /  1019.4hPa OSO 6.9mph /  11.1km/h 14mph /  22.5km/h 44% 0in /  0.0mm
11:54 57.4 °F /  14.1 °C 35.2 °F /  1.8 °C 30.1in /  1018.9hPa OSO 6.4mph /  10.3km/h 14mph /  22.5km/h 43.4% 0in /  0.0mm
11:59 57.6 °F /  14.2 °C 35.4 °F /  1.9 °C 30.1in /  1018.9hPa Oeste 7.1mph /  11.4km/h 13mph /  20.9km/h 43.2% 0in /  0.0mm
12:04 57.7 °F /  14.3 °C 35.2 °F /  1.8 °C 30.1in /  1018.9hPa Oeste 7.4mph /  11.9km/h 16.3mph /  26.2km/h 42.8% 0in /  0.0mm
12:09 57.7 °F /  14.3 °C 35.1 °F /  1.7 °C 30.1in /  1018.6hPa Oeste 7.8mph /  12.6km/h 16.3mph /  26.2km/h 42.5% 0in /  0.0mm
12:14 57.7 °F /  14.3 °C 34.9 °F /  1.6 °C 30.1in /  1018.6hPa Oeste 8.1mph /  13km/h 16mph /  25.7km/h 42% 0in /  0.0mm
12:19 58.1 °F /  14.5 °C 34.9 °F /  1.6 °C 30.1in /  1018.6hPa ONO 8.4mph /  13.6km/h 19mph /  30.6km/h 41.7% 0in /  0.0mm
12:24 58.3 °F /  14.6 °C 34.7 °F /  1.5 °C 30.1in /  1018.1hPa Oeste 8.7mph /  14km/h 19mph /  30.6km/h 40.9% 0in /  0.0mm
12:29 58.5 °F /  14.7 °C 34.2 °F /  1.2 °C 30.1in /  1018.1hPa ONO 9.9mph /  15.9km/h 17.3mph /  27.8km/h 40.1% 0in /  0.0mm
12:34 58.5 °F /  14.7 °C 34.2 °F /  1.2 °C 30.1in /  1018.1hPa ONO 10.7mph /  17.2km/h 17mph /  27.4km/h 40% 0in /  0.0mm
12:39 58.6 °F /  14.8 °C 34.3 °F /  1.3 °C 30.1in /  1017.9hPa Oeste 10.1mph /  16.3km/h 16mph /  25.7km/h 40% 0in /  0.0mm
12:44 58.8 °F /  14.9 °C 34.5 °F /  1.4 °C 30.1in /  1017.9hPa Oeste 9.7mph /  15.6km/h 12mph /  19.3km/h 39.8% 0in /  0.0mm
12:49 59.2 °F /  15.1 °C 34.2 °F /  1.2 °C 30.1in /  1017.9hPa ONO 7.7mph /  12.4km/h 13mph /  20.9km/h 39.1% 0in /  0.0mm
12:54 59.2 °F /  15.1 °C 34.2 °F /  1.2 °C 30in /  1017.3hPa Oeste 6.4mph /  10.3km/h 13mph /  20.9km/h 39% 0in /  0.0mm
12:59 59.5 °F /  15.3 °C 34.2 °F /  1.2 °C 30in /  1017.3hPa Oeste 6.7mph /  10.8km/h 12mph /  19.3km/h 38.5% 0in /  0.0mm
13:04 59.7 °F /  15.4 °C 34 °F /  1.1 °C 30in /  1017.3hPa Oeste 6.9mph /  11.1km/h 14mph /  22.5km/h 37.9% 0in /  0.0mm
13:09 59.9 °F /  15.5 °C 33.3 °F /  0.7 °C 30in /  1017.0hPa Oeste 6.9mph /  11.1km/h 16.8mph /  27km/h 36.6% 0in /  0.0mm
13:14 59.9 °F /  15.5 °C 32.9 °F /  0.5 °C 30in /  1017.0hPa Oeste 6.9mph /  11.1km/h 17.8mph /  28.6km/h 36% 0in /  0.0mm
13:19 60.3 °F /  15.7 °C 33.8 °F /  1 °C 30in /  1017.0hPa Oeste 8mph /  12.8km/h 18mph /  29km/h 36.8% 0in /  0.0mm
13:24 60.6 °F /  15.9 °C 33.3 °F /  0.7 °C 30in /  1016.5hPa Oeste 8.7mph /  14km/h 13mph /  20.9km/h 35.8% 0in /  0.0mm
13:29 60.6 °F /  15.9 °C 32.9 °F /  0.5 °C 30in /  1016.5hPa Oeste 7.6mph /  12.3km/h 13mph /  20.9km/h 35.2% 0in /  0.0mm
13:34 61 °F /  16.1 °C 34.2 °F /  1.2 °C 30in /  1016.5hPa OSO 6.9mph /  11.1km/h 17.3mph /  27.8km/h 36.5% 0in /  0.0mm
13:39 61.2 °F /  16.2 °C 34.7 °F /  1.5 °C 30in /  1016.2hPa SO 6.6mph /  10.6km/h 17mph /  27.4km/h 37% 0in /  0.0mm
13:44 61.2 °F /  16.2 °C 34.7 °F /  1.5 °C 30in /  1016.2hPa SO 6.4mph /  10.3km/h 11mph /  17.7km/h 36.9% 0in /  0.0mm
13:49 61.3 °F /  16.3 °C 34.3 °F /  1.3 °C 30in /  1016.2hPa SO 5.7mph /  9.2km/h 11mph /  17.7km/h 36.5% 0in /  0.0mm
13:54 61.3 °F /  16.3 °C 34.7 °F /  1.5 °C 30in /  1015.8hPa SO 5.2mph /  8.4km/h 10.4mph /  16.7km/h 37% 0in /  0.0mm
13:59 61.3 °F /  16.3 °C 34.3 °F /  1.3 °C 30in /  1015.8hPa SO 5.3mph /  8.6km/h 10.7mph /  17.2km/h 36.2% 0in /  0.0mm
14:04 61.3 °F /  16.3 °C 34 °F /  1.1 °C 30in /  1015.8hPa OSO 5.4mph /  8.7km/h 13mph /  20.9km/h 35.7% 0in /  0.0mm
14:09 61.3 °F /  16.3 °C 33.3 °F /  0.7 °C 30in /  1015.5hPa OSO 5.9mph /  9.5km/h 13mph /  20.9km/h 34.8% 0in /  0.0mm
14:14 61.7 °F /  16.5 °C 33.1 °F /  0.6 °C 30in /  1015.5hPa OSO 6.2mph /  10km/h 12mph /  19.3km/h 34.1% 0in /  0.0mm
14:19 61.9 °F /  16.6 °C 33.3 °F /  0.7 °C 30in /  1015.5hPa Oeste 5.7mph /  9.2km/h 9mph /  14.5km/h 34% 0in /  0.0mm
14:24 62.1 °F /  16.7 °C 32.7 °F /  0.4 °C 30in /  1015.2hPa Oeste 5.4mph /  8.7km/h 9.7mph /  15.6km/h 33.2% 0in /  0.0mm
14:29 62.2 °F /  16.8 °C 32.7 °F /  0.4 °C 30in /  1015.2hPa Oeste 5.3mph /  8.5km/h 10mph /  16.1km/h 33% 0in /  0.0mm
14:34 62.4 °F /  16.9 °C 33.1 °F /  0.6 °C 30in /  1015.2hPa Oeste 5.2mph /  8.4km/h 13.8mph /  22.2km/h 33.1% 0in /  0.0mm
14:39 63 °F /  17.2 °C 32.9 °F /  0.5 °C 30in /  1014.7hPa ONO 4.9mph /  7.9km/h 14mph /  22.5km/h 32.4% 0in /  0.0mm
14:44 63.1 °F /  17.3 °C 32.4 °F /  0.2 °C 30in /  1014.7hPa ONO 4.7mph /  7.6km/h 16.1mph /  25.9km/h 31.3% 0in /  0.0mm
14:49 63.3 °F /  17.4 °C 32 °F /  0 °C 30in /  1014.7hPa ONO 6mph /  9.7km/h 16mph /  25.7km/h 31% 0in /  0.0mm
14:54 63.5 °F /  17.5 °C 32 °F /  0 °C 30in /  1014.4hPa ONO 6.9mph /  11.1km/h 12mph /  19.3km/h 30.6% 0in /  0.0mm
14:59 63.9 °F /  17.7 °C 32 °F /  0 °C 30in /  1014.4hPa Oeste 6.3mph /  10.1km/h 11.5mph /  18.5km/h 30.2% 0in /  0.0mm
15:04 64 °F /  17.8 °C 32 °F /  0 °C 30in /  1014.4hPa Oeste 5.9mph /  9.5km/h 12mph /  19.3km/h 30% 0in /  0.0mm
15:09 64.4 °F /  18 °C 32.2 °F /  0.1 °C 30in /  1014.2hPa Oeste 5.9mph /  9.5km/h 10.7mph /  17.2km/h 30% 0in /  0.0mm
15:14 64.8 °F /  18.2 °C 32.5 °F /  0.3 °C 30in /  1014.2hPa Oeste 5.9mph /  9.5km/h 11mph /  17.7km/h 29.9% 0in /  0.0mm
15:19 64.9 °F /  18.3 °C 32 °F /  0 °C 30in /  1014.2hPa Oeste 4.9mph /  7.9km/h 10.7mph /  17.2km/h 29.1% 0in /  0.0mm
15:24 65.1 °F /  18.4 °C 32 °F /  0 °C 29.9in /  1013.9hPa OSO 4.3mph /  6.9km/h 11mph /  17.7km/h 29% 0in /  0.0mm
15:29 65.1 °F /  18.4 °C 31.6 °F /  -0.2 °C 29.9in /  1013.9hPa SO 5mph /  8km/h 10.4mph /  16.7km/h 28.5% 0in /  0.0mm
15:34 65.5 °F /  18.6 °C 31.5 °F /  -0.3 °C 29.9in /  1013.9hPa OSO 5.4mph /  8.7km/h 11.2mph /  18km/h 28% 0in /  0.0mm
15:39 65.7 °F /  18.7 °C 31.6 °F /  -0.2 °C 29.9in /  1013.8hPa OSO 6mph /  9.6km/h 12.3mph /  19.8km/h 28% 0in /  0.0mm
15:44 65.8 °F /  18.8 °C 31.6 °F /  -0.2 °C 29.9in /  1013.8hPa OSO 6.4mph /  10.3km/h 15.2mph /  24.5km/h 28% 0in /  0.0mm
15:49 65.8 °F /  18.8 °C 32.2 °F /  0.1 °C 29.9in /  1013.8hPa Oeste 6.4mph /  10.3km/h 15mph /  24.1km/h 28.4% 0in /  0.0mm
15:54 65.8 °F /  18.8 °C 31.8 °F /  -0.1 °C 29.9in /  1013.5hPa Oeste 6.4mph /  10.3km/h 14mph /  22.5km/h 28% 0in /  0.0mm
15:59 65.8 °F /  18.8 °C 31.6 °F /  -0.2 °C 29.9in /  1013.5hPa OSO 7.1mph /  11.4km/h 13mph /  20.9km/h 27.8% 0in /  0.0mm
16:04 66 °F /  18.9 °C 31.6 °F /  -0.2 °C 29.9in /  1013.5hPa OSO 7.4mph /  11.9km/h 13mph /  20.9km/h 27.6% 0in /  0.0mm
16:09 66 °F /  18.9 °C 31.1 °F /  -0.5 °C 29.9in /  1013.5hPa OSO 6.8mph /  10.9km/h 12.3mph /  19.8km/h 27% 0in /  0.0mm
16:14 66 °F /  18.9 °C 31.1 °F /  -0.5 °C 29.9in /  1013.5hPa OSO 6.4mph /  10.3km/h 13mph /  20.9km/h 27% 0in /  0.0mm
16:19 66 °F /  18.9 °C 31.1 °F /  -0.5 °C 29.9in /  1013.5hPa OSO 6.7mph /  10.8km/h 13mph /  20.9km/h 27% 0in /  0.0mm
16:24 66 °F /  18.9 °C 31.1 °F /  -0.5 °C 29.9in /  1013.2hPa SO 6.9mph /  11.1km/h 13mph /  20.9km/h 27% 0in /  0.0mm
16:29 66.4 °F /  19.1 °C 31.5 °F /  -0.3 °C 29.9in /  1013.2hPa OSO 6.3mph /  10.2km/h 13.8mph /  22.2km/h 27.1% 0in /  0.0mm
16:34 66.2 °F /  19 °C 31.3 °F /  -0.4 °C 29.9in /  1013.2hPa OSO 5.9mph /  9.5km/h 14mph /  22.5km/h 27% 0in /  0.0mm
16:39 66.2 °F /  19 °C 31.5 °F /  -0.3 °C 29.9in /  1013.1hPa SO 6.9mph /  11.1km/h 13mph /  20.9km/h 27.4% 0in /  0.0mm
16:44 66.2 °F /  19 °C 32.2 °F /  0.1 °C 29.9in /  1013.1hPa SO 7.6mph /  12.2km/h 10mph /  16.1km/h 28% 0in /  0.0mm
16:49 66.4 °F /  19.1 °C 32.2 °F /  0.1 °C 29.9in /  1013.1hPa SO 6.6mph /  10.6km/h 10.4mph /  16.7km/h 28% 0in /  0.0mm
16:54 66 °F /  18.9 °C 32.7 °F /  0.4 °C 29.9in /  1013.0hPa SSO 5.9mph /  9.5km/h 10mph /  16.1km/h 28.9% 0in /  0.0mm
16:59 65.8 °F /  18.8 °C 32.9 °F /  0.5 °C 29.9in /  1013.0hPa SO 5.9mph /  9.5km/h 10mph /  16.1km/h 29.2% 0in /  0.0mm
17:04 65.7 °F /  18.7 °C 32.5 °F /  0.3 °C 29.9in /  1013.0hPa OSO 5.9mph /  9.5km/h 10.4mph /  16.7km/h 29% 0in /  0.0mm
17:09 65.8 °F /  18.8 °C 32.4 °F /  0.2 °C 29.9in /  1013.0hPa OSO 5.6mph /  9km/h 10mph /  16.1km/h 28.6% 0in /  0.0mm
17:14 66 °F /  18.9 °C 32.7 °F /  0.4 °C 29.9in /  1013.0hPa SO 5.4mph /  8.7km/h 8.1mph /  13km/h 29% 0in /  0.0mm
17:19 65.8 °F /  18.8 °C 32.7 °F /  0.4 °C 29.9in /  1013.0hPa SO 5mph /  8km/h 8.1mph /  13km/h 29% 0in /  0.0mm
17:24 65.7 °F /  18.7 °C 33.3 °F /  0.7 °C 29.9in /  1013.0hPa SO 4.7mph /  7.6km/h 8mph /  12.9km/h 29.8% 0in /  0.0mm
17:29 65.5 °F /  18.6 °C 33.1 °F /  0.6 °C 29.9in /  1013.0hPa SO 4.7mph /  7.6km/h 11.5mph /  18.5km/h 29.9% 0in /  0.0mm
17:34 65.1 °F /  18.4 °C 32.9 °F /  0.5 °C 29.9in /  1013.0hPa SO 4.7mph /  7.6km/h 12mph /  19.3km/h 30% 0in /  0.0mm
17:39 64.9 °F /  18.3 °C 32.7 °F /  0.4 °C 29.9in /  1012.8hPa SO 5.7mph /  9.2km/h 11.5mph /  18.5km/h 30% 0in /  0.0mm
17:44 64.8 °F /  18.2 °C 32.4 °F /  0.2 °C 29.9in /  1012.8hPa SO 6.4mph /  10.3km/h 12mph /  19.3km/h 29.8% 0in /  0.0mm
17:49 64.8 °F /  18.2 °C 32.5 °F /  0.3 °C 29.9in /  1012.9hPa SSO 6.3mph /  10.1km/h 12mph /  19.3km/h 30% 0in /  0.0mm
17:54 64.6 °F /  18.1 °C 32.2 °F /  0.1 °C 29.9in /  1012.9hPa SO 6.2mph /  10km/h 11.8mph /  19km/h 29.8% 0in /  0.0mm
17:59 64.6 °F /  18.1 °C 32.4 °F /  0.2 °C 29.9in /  1012.9hPa Oeste 6mph /  9.7km/h 15mph /  24.1km/h 29.9% 0in /  0.0mm
18:04 64.4 °F /  18 °C 32.4 °F /  0.2 °C 29.9in /  1012.9hPa Oeste 5.9mph /  9.5km/h 15mph /  24.1km/h 30.1% 0in /  0.0mm
18:09 63.9 °F /  17.7 °C 32.7 °F /  0.4 °C 29.9in /  1012.9hPa Oeste 5mph /  8km/h 8.1mph /  13km/h 31.1% 0in /  0.0mm
18:14 63.1 °F /  17.3 °C 32.7 °F /  0.4 °C 29.9in /  1012.9hPa OSO 4.3mph /  6.9km/h 9.2mph /  14.8km/h 32% 0in /  0.0mm
18:19 62.8 °F /  17.1 °C 32.5 °F /  0.3 °C 29.9in /  1012.9hPa OSO 4.8mph /  7.8km/h 9.7mph /  15.6km/h 32.1% 0in /  0.0mm
18:24 62.4 °F /  16.9 °C 32.9 °F /  0.5 °C 29.9in /  1012.9hPa SO 5.2mph /  8.4km/h 10mph /  16.1km/h 33% 0in /  0.0mm
18:29 62.2 °F /  16.8 °C 32.7 °F /  0.4 °C 29.9in /  1012.9hPa SO 5.3mph /  8.5km/h 9mph /  14.5km/h 33% 0in /  0.0mm
18:34 62.1 °F /  16.7 °C 32.7 °F /  0.4 °C 29.9in /  1012.9hPa SSO 5.4mph /  8.7km/h 11.2mph /  18km/h 33.2% 0in /  0.0mm
18:39 61.7 °F /  16.5 °C 33.3 °F /  0.7 °C 29.9in /  1012.9hPa SSO 5.9mph /  9.5km/h 12mph /  19.3km/h 34.3% 0in /  0.0mm
18:44 61.3 °F /  16.3 °C 34.2 °F /  1.2 °C 29.9in /  1012.9hPa SO 6.2mph /  10km/h 12mph /  19.3km/h 36% 0in /  0.0mm
18:49 60.6 °F /  15.9 °C 35.1 °F /  1.7 °C 29.9in /  1012.9hPa SO 6.6mph /  10.6km/h 12.7mph /  20.4km/h 38.3% 0in /  0.0mm
18:54 60.1 °F /  15.6 °C 35.8 °F /  2.1 °C 29.9in /  1012.9hPa SO 6.9mph /  11.1km/h 13mph /  20.9km/h 40.1% 0in /  0.0mm
18:59 59.5 °F /  15.3 °C 36.1 °F /  2.3 °C 29.9in /  1012.9hPa SO 6.6mph /  10.6km/h 12mph /  19.3km/h 41.6% 0in /  0.0mm
19:04 59.4 °F /  15.2 °C 36.1 °F /  2.3 °C 29.9in /  1012.9hPa SO 6.4mph /  10.3km/h 14.5mph /  23.3km/h 41.8% 0in /  0.0mm
19:09 59.9 °F /  15.5 °C 33.8 °F /  1 °C 29.9in /  1012.9hPa OSO 7mph /  11.3km/h 17.3mph /  27.8km/h 37.5% 0in /  0.0mm
19:14 60.6 °F /  15.9 °C 34.7 °F /  1.5 °C 29.9in /  1012.9hPa SO 7.4mph /  11.9km/h 17mph /  27.4km/h 37.7% 0in /  0.0mm
19:19 60.1 °F /  15.6 °C 36.3 °F /  2.4 °C 29.9in /  1012.9hPa SSO 6.8mph /  10.9km/h 10mph /  16.1km/h 41.3% 0in /  0.0mm
19:24 59.2 °F /  15.1 °C 36.1 °F /  2.3 °C 29.9in /  1012.9hPa SO 6.4mph /  10.3km/h 10.4mph /  16.7km/h 42.3% 0in /  0.0mm
19:29 58.8 °F /  14.9 °C 36.5 °F /  2.5 °C 29.9in /  1012.9hPa SO 6.1mph /  9.8km/h 10.4mph /  16.7km/h 43.1% 0in /  0.0mm
19:34 58.5 °F /  14.7 °C 37.2 °F /  2.9 °C 29.9in /  1013.0hPa SO 5.9mph /  9.5km/h 10.4mph /  16.7km/h 44.9% 0in /  0.0mm
19:39 58.3 °F /  14.6 °C 37.2 °F /  2.9 °C 29.9in /  1013.0hPa OSO 5.5mph /  8.8km/h 10mph /  16.1km/h 45.3% 0in /  0.0mm
19:44 58.1 °F /  14.5 °C 37.8 °F /  3.2 °C 29.9in /  1013.0hPa SO 5.2mph /  8.4km/h 8mph /  12.9km/h 46.4% 0in /  0.0mm
19:49 57.9 °F /  14.4 °C 38.3 °F /  3.5 °C 29.9in /  1013.2hPa SO 4.2mph /  6.8km/h 7mph /  11.3km/h 47.9% 0in /  0.0mm
19:54 57.7 °F /  14.3 °C 38.8 °F /  3.8 °C 29.9in /  1013.2hPa OSO 3.6mph /  5.8km/h 6mph /  9.7km/h 49.2% 0in /  0.0mm
19:59 57.6 °F /  14.2 °C 39.2 °F /  4 °C 29.9in /  1013.2hPa SO 2.8mph /  4.5km/h 5mph /  8km/h 50.6% 0in /  0.0mm
20:04 57.4 °F /  14.1 °C 39 °F /  3.9 °C 29.9in /  1013.2hPa SSO 2.4mph /  3.9km/h 8.1mph /  13km/h 50.1% 0in /  0.0mm
20:09 57.2 °F /  14 °C 40.1 °F /  4.5 °C 29.9in /  1013.2hPa SSE 2.7mph /  4.3km/h 8mph /  12.9km/h 52.9% 0in /  0.0mm
20:14 56.7 °F /  13.7 °C 40.5 °F /  4.7 °C 29.9in /  1013.2hPa Sur 2.9mph /  4.6km/h 6.4mph /  10.3km/h 54.8% 0in /  0.0mm
20:19 55.8 °F /  13.2 °C 41.2 °F /  5.1 °C 29.9in /  1013.2hPa Sur 3mph /  4.8km/h 8.1mph /  13km/h 57.8% 0in /  0.0mm
20:24 55 °F /  12.8 °C 41.4 °F /  5.2 °C 29.9in /  1013.0hPa Sur 3.1mph /  5km/h 8.1mph /  13km/h 59.9% 0in /  0.0mm
20:29 54.5 °F /  12.5 °C 41.2 °F /  5.1 °C 29.9in /  1013.0hPa SSO 4.5mph /  7.2km/h 10.4mph /  16.7km/h 61% 0in /  0.0mm
20:34 54.3 °F /  12.4 °C 40.8 °F /  4.9 °C 29.9in /  1013.1hPa SO 5.4mph /  8.7km/h 10mph /  16.1km/h 60.3% 0in /  0.0mm
20:39 54.5 °F /  12.5 °C 40.3 °F /  4.6 °C 29.9in /  1013.1hPa SSO 5.3mph /  8.5km/h 10.2mph /  16.4km/h 59% 0in /  0.0mm
20:44 54.9 °F /  12.7 °C 39.4 °F /  4.1 °C 29.9in /  1013.1hPa SSO 5.2mph /  8.4km/h 10.4mph /  16.7km/h 55.8% 0in /  0.0mm
20:49 55.2 °F /  12.9 °C 38.7 °F /  3.7 °C 29.9in /  1013.1hPa SSO 5.6mph /  9km/h 10mph /  16.1km/h 53.7% 0in /  0.0mm
20:54 55.6 °F /  13.1 °C 38.1 °F /  3.4 °C 29.9in /  1013.0hPa SSE 5.9mph /  9.5km/h 9mph /  14.5km/h 51.9% 0in /  0.0mm
20:59 55.8 °F /  13.2 °C 37 °F /  2.8 °C 29.9in /  1013.0hPa SE 5.5mph /  8.8km/h 10mph /  16.1km/h 49.3% 0in /  0.0mm
21:04 56.1 °F /  13.4 °C 35.8 °F /  2.1 °C 29.9in /  1013.0hPa SSE 5.2mph /  8.4km/h 11.5mph /  18.5km/h 46.3% 0in /  0.0mm
21:09 56.7 °F /  13.7 °C 34.5 °F /  1.4 °C 29.9in /  1013.0hPa Sur 6.5mph /  10.5km/h 12mph /  19.3km/h 43.2% 0in /  0.0mm
21:14 57.4 °F /  14.1 °C 33.8 °F /  1 °C 29.9in /  1013.0hPa SSE 7.4mph /  11.9km/h 10.4mph /  16.7km/h 40.9% 0in /  0.0mm
21:19 57.9 °F /  14.4 °C 32.7 °F /  0.4 °C 29.9in /  1013.1hPa SSE 7.1mph /  11.4km/h 11.5mph /  18.5km/h 38.3% 0in /  0.0mm
21:24 58.5 °F /  14.7 °C 32.4 °F /  0.2 °C 29.9in /  1013.1hPa SE 6.9mph /  11.1km/h 12mph /  19.3km/h 37% 0in /  0.0mm
21:29 58.6 °F /  14.8 °C 31.8 °F /  -0.1 °C 29.9in /  1013.1hPa SE 6.5mph /  10.4km/h 10.4mph /  16.7km/h 36.2% 0in /  0.0mm
21:34 58.6 °F /  14.8 °C 31.6 °F /  -0.2 °C 29.9in /  1013.3hPa SE 6.2mph /  10km/h 10mph /  16.1km/h 35.8% 0in /  0.0mm
21:39 58.8 °F /  14.9 °C 31.3 °F /  -0.4 °C 29.9in /  1013.3hPa SSE 4.7mph /  7.5km/h 7mph /  11.3km/h 35% 0in /  0.0mm
21:44 58.8 °F /  14.9 °C 31.3 °F /  -0.4 °C 29.9in /  1013.3hPa OSO 3.6mph /  5.8km/h 5.9mph /  9.5km/h 35% 0in /  0.0mm
21:49 58.8 °F /  14.9 °C 31.1 °F /  -0.5 °C 29.9in /  1013.3hPa SO 3.2mph /  5.1km/h 6mph /  9.7km/h 34.9% 0in /  0.0mm
21:54 58.8 °F /  14.9 °C 31.1 °F /  -0.5 °C 29.9in /  1013.2hPa SO 2.9mph /  4.7km/h 6.2mph /  10km/h 34.9% 0in /  0.0mm
21:59 58.8 °F /  14.9 °C 31.1 °F /  -0.5 °C 29.9in /  1013.2hPa SO 3.4mph /  5.4km/h 6.9mph /  11.1km/h 34.9% 0in /  0.0mm
22:04 58.6 °F /  14.8 °C 30.9 °F /  -0.6 °C 29.9in /  1013.3hPa SO 3.6mph /  5.8km/h 7mph /  11.3km/h 35% 0in /  0.0mm
22:09 58.5 °F /  14.7 °C 31.3 °F /  -0.4 °C 29.9in /  1013.3hPa Sur 3.9mph /  6.2km/h 6.9mph /  11.1km/h 35.6% 0in /  0.0mm
22:14 57.9 °F /  14.4 °C 31.1 °F /  -0.5 °C 29.9in /  1013.3hPa SE 4mph /  6.5km/h 8.1mph /  13km/h 36% 0in /  0.0mm
22:19 57.6 °F /  14.2 °C 30.7 °F /  -0.7 °C 29.9in /  1013.5hPa SE 4.4mph /  7.1km/h 8.1mph /  13km/h 36.1% 0in /  0.0mm
22:24 57.4 °F /  14.1 °C 30.9 °F /  -0.6 °C 29.9in /  1013.5hPa SE 4.7mph /  7.6km/h 8mph /  12.9km/h 36.4% 0in /  0.0mm
22:29 57.2 °F /  14 °C 30.6 °F /  -0.8 °C 29.9in /  1013.5hPa SO 4.3mph /  6.9km/h 7mph /  11.3km/h 36.2% 0in /  0.0mm
22:34 57.6 °F /  14.2 °C 30.7 °F /  -0.7 °C 29.9in /  1013.5hPa Oeste 4mph /  6.5km/h 10.4mph /  16.7km/h 36% 0in /  0.0mm
22:39 57.6 °F /  14.2 °C 30.7 °F /  -0.7 °C 29.9in /  1013.3hPa Oeste 4.8mph /  7.8km/h 10mph /  16.1km/h 36% 0in /  0.0mm
22:44 57.2 °F /  14 °C 30.6 °F /  -0.8 °C 29.9in /  1013.3hPa SSE 5.4mph /  8.7km/h 10mph /  16.1km/h 36.4% 0in /  0.0mm
22:49 56.8 °F /  13.8 °C 30.7 °F /  -0.7 °C 29.9in /  1013.6hPa SSE 4.4mph /  7.1km/h 8.1mph /  13km/h 36.9% 0in /  0.0mm
22:54 56.3 °F /  13.5 °C 30.7 °F /  -0.7 °C 29.9in /  1013.6hPa SO 3.6mph /  5.8km/h 8.1mph /  13km/h 37.7% 0in /  0.0mm
22:59 55.9 °F /  13.3 °C 30.7 °F /  -0.7 °C 29.9in /  1013.6hPa OSO 4.3mph /  7km/h 8.1mph /  13km/h 38% 0in /  0.0mm
23:04 55.9 °F /  13.3 °C 30.4 °F /  -0.9 °C 29.9in /  1013.6hPa Oeste 4.7mph /  7.6km/h 7.4mph /  11.9km/h 37.7% 0in /  0.0mm
23:09 56.1 °F /  13.4 °C 30.2 °F /  -1 °C 29.9in /  1013.6hPa ONO 3.8mph /  6.1km/h 7.6mph /  12.2km/h 37% 0in /  0.0mm
23:14 56.5 °F /  13.6 °C 30.4 °F /  -0.9 °C 29.9in /  1013.6hPa Oeste 3.1mph /  5km/h 10.4mph /  16.7km/h 36.9% 0in /  0.0mm
23:19 56.8 °F /  13.8 °C 30 °F /  -1.1 °C 29.9in /  1013.6hPa ONO 4.7mph /  7.6km/h 16.1mph /  25.9km/h 35.9% 0in /  0.0mm
23:24 57.4 °F /  14.1 °C 29.7 °F /  -1.3 °C 29.9in /  1013.5hPa ONO 5.9mph /  9.5km/h 17.5mph /  28.2km/h 34.6% 0in /  0.0mm
23:29 57.9 °F /  14.4 °C 29.3 °F /  -1.5 °C 29.9in /  1013.5hPa ONO 8.4mph /  13.5km/h 20.7mph /  33.3km/h 33.4% 0in /  0.0mm
23:34 57.9 °F /  14.4 °C 29.1 °F /  -1.6 °C 29.9in /  1013.7hPa ONO 10.2mph /  16.4km/h 21mph /  33.8km/h 33% 0in /  0.0mm
23:39 57.9 °F /  14.4 °C 28.9 °F /  -1.7 °C 29.9in /  1013.7hPa ONO 9.6mph /  15.5km/h 20.4mph /  32.8km/h 33% 0in /  0.0mm
23:44 57.7 °F /  14.3 °C 28.4 °F /  -2 °C 29.9in /  1013.7hPa ONO 9.2mph /  14.8km/h 24.6mph /  39.6km/h 32.4% 0in /  0.0mm
23:49 57.7 °F /  14.3 °C 28 °F /  -2.2 °C 29.9in /  1013.7hPa ONO 11.1mph /  17.9km/h 25mph /  40.2km/h 32% 0in /  0.0mm
23:54 57.6 °F /  14.2 °C 27.9 °F /  -2.3 °C 29.9in /  1013.7hPa ONO 12.3mph /  19.8km/h 17.3mph /  27.8km/h 32% 0in /  0.0mm
23:59 57.4 °F /  14.1 °C 27.7 °F /  -2.4 °C 29.9in /  1013.7hPa ONO 10.6mph /  17.1km/h 17mph /  27.4km/h 32% 0in /  0.0mm
Murcia-Puente Tocinos, España
Compliments of Weather Underground - 3 mb

La estación de MeteoMurcia.com, publica sus datos en los siguientes proyectos:

Weather Underground PWS IMURCIAP2 Meteoclimatic www.awekas.at

W3Counter
Web Analytics